Time;durP1;ratioP1;P1;durP2;ratioP2;P2;SDS_P1;SDS_P2;PMS_P1;PMS_P2;Temp;Humidity;BMP_temperature;BMP_pressure;BME280_temperature;BME280_humidity;BME280_pressure;Samples;Min_cycle;Max_cycle;Signal;HPM_P1;HPM_P2
2021/12/22 00:02:16;;;;;;;18.63;10.30;;;;;;;;;;4999085;28;20889;-56
2021/12/22 00:04:47;;;;;;;16.93;9.87;;;;;;;;;;4990948;28;20236;-56
2021/12/22 00:07:13;;;;;;;16.57;10.00;;;;;;;;;;4996372;28;20289;-55
2021/12/22 00:09:39;;;;;;;13.63;9.17;;;;;;;;;;4988894;28;20224;-56
2021/12/22 00:12:06;;;;;;;15.40;9.50;;;;;;;;;;4999260;28;20236;-55
2021/12/22 00:14:31;;;;;;;14.93;9.47;;;;;;;;;;4982857;28;20236;-56
2021/12/22 00:16:57;;;;;;;14.33;9.60;;;;;;;;;;4979235;28;21151;-56
2021/12/22 00:19:23;;;;;;;15.70;9.90;;;;;;;;;;4981924;28;25128;-56
2021/12/22 00:21:49;;;;;;;13.90;9.40;;;;;;;;;;4976725;28;20239;-55
2021/12/22 00:24:15;;;;;;;13.97;8.93;;;;;;;;;;4982640;28;20308;-56
2021/12/22 00:26:41;;;;;;;14.33;9.50;;;;;;;;;;4987247;28;21313;-56
2021/12/22 00:29:08;;;;;;;13.67;9.10;;;;;;;;;;4988997;28;20830;-55
2021/12/22 00:31:41;;;;;;;15.47;9.93;;;;;;;;;;4981296;28;20224;-55
2021/12/22 00:34:15;;;;;;;13.97;9.23;;;;;;;;;;4999783;28;20797;-56
2021/12/22 00:36:41;;;;;;;14.73;9.20;;;;;;;;;;4993933;28;20235;-56
2021/12/22 00:39:07;;;;;;;15.93;9.60;;;;;;;;;;4979995;28;20279;-55
2021/12/22 00:41:33;;;;;;;17.33;9.27;;;;;;;;;;4977798;28;21442;-55
2021/12/22 00:43:59;;;;;;;16.17;9.97;;;;;;;;;;4998932;28;20245;-56
2021/12/22 00:46:25;;;;;;;16.47;9.73;;;;;;;;;;4988748;28;20792;-56
2021/12/22 00:48:52;;;;;;;14.13;9.93;;;;;;;;;;4990620;28;21638;-55
2021/12/22 00:51:18;;;;;;;15.97;9.30;;;;;;;;;;4985280;28;20236;-56
2021/12/22 00:53:43;;;;;;;15.47;9.43;;;;;;;;;;4984820;28;20239;-55
2021/12/22 00:56:09;;;;;;;14.17;8.67;;;;;;;;;;4986517;28;20599;-55
2021/12/22 00:58:35;;;;;;;13.97;9.20;;;;;;;;;;4996552;28;20318;-56
2021/12/22 01:01:01;;;;;;;16.30;9.47;;;;;;;;;;4997889;28;20231;-56
2021/12/22 01:03:27;;;;;;;15.47;9.07;;;;;;;;;;4994196;28;20716;-56
2021/12/22 01:05:53;;;;;;;14.30;9.00;;;;;;;;;;4994143;28;20821;-56
2021/12/22 01:08:19;;;;;;;14.40;9.27;;;;;;;;;;4995647;28;21198;-55
2021/12/22 01:10:45;;;;;;;16.50;9.60;;;;;;;;;;4997334;28;20294;-56
2021/12/22 01:13:12;;;;;;;13.43;9.63;;;;;;;;;;4995915;28;20259;-55
2021/12/22 01:15:38;;;;;;;12.20;8.23;;;;;;;;;;4993535;28;20803;-56
2021/12/22 01:18:18;;;;;;;13.37;8.60;;;;;;;;;;4993916;28;20734;-56
2021/12/22 01:21:04;;;;;;;13.47;9.27;;;;;;;;;;4999171;28;20410;-55
2021/12/22 01:23:35;;;;;;;13.63;8.70;;;;;;;;;;5001901;28;20318;-55
2021/12/22 01:26:03;;;;;;;14.97;8.43;;;;;;;;;;4991189;28;20417;-56
2021/12/22 01:28:29;;;;;;;12.77;8.80;;;;;;;;;;5004877;28;20724;-56
2021/12/22 01:31:01;;;;;;;13.13;7.97;;;;;;;;;;5007684;28;20235;-56
2021/12/22 01:33:27;;;;;;;11.43;8.03;;;;;;;;;;4997554;28;20853;-55
2021/12/22 01:35:53;;;;;;;12.37;8.60;;;;;;;;;;5011983;28;20218;-56
2021/12/22 01:38:19;;;;;;;10.23;7.70;;;;;;;;;;4999056;28;20359;-55
2021/12/22 01:40:45;;;;;;;12.23;7.60;;;;;;;;;;4996500;28;20393;-56
2021/12/22 01:43:11;;;;;;;11.50;8.17;;;;;;;;;;4990197;28;20238;-55
2021/12/22 01:45:54;;;;;;;13.00;8.37;;;;;;;;;;5004750;28;20234;-56
2021/12/22 01:49:24;;;;;;;13.03;7.13;;;;;;;;;;4983442;28;20323;-56
2021/12/22 01:51:26;;;;;;;11.37;7.83;;;;;;;;;;4964646;28;20236;-56
2021/12/22 01:53:52;;;;;;;10.57;7.87;;;;;;;;;;4996123;28;20336;-56
2021/12/22 01:56:24;;;;;;;12.00;7.43;;;;;;;;;;4994605;28;20237;-55
2021/12/22 01:58:51;;;;;;;11.57;8.10;;;;;;;;;;5016746;28;20228;-56
2021/12/22 02:01:17;;;;;;;11.63;7.50;;;;;;;;;;5003204;28;20386;-56
2021/12/22 02:03:43;;;;;;;12.33;7.13;;;;;;;;;;5005737;28;20829;-55
2021/12/22 02:06:10;;;;;;;10.47;6.77;;;;;;;;;;5006034;28;20769;-56
2021/12/22 02:08:36;;;;;;;9.53;6.67;;;;;;;;;;5004701;28;20239;-55
2021/12/22 02:11:03;;;;;;;11.97;7.20;;;;;;;;;;5002603;28;20254;-55
2021/12/22 02:13:34;;;;;;;10.27;7.17;;;;;;;;;;5016360;28;20524;-55
2021/12/22 02:16:08;;;;;;;12.20;6.73;;;;;;;;;;5011069;28;25199;-55
2021/12/22 02:18:34;;;;;;;10.57;6.93;;;;;;;;;;5012196;28;20775;-55
2021/12/22 02:21:00;;;;;;;12.97;6.93;;;;;;;;;;5022437;28;20231;-56
2021/12/22 02:23:26;;;;;;;11.67;6.67;;;;;;;;;;5006250;28;20231;-56
2021/12/22 02:25:57;;;;;;;10.33;7.10;;;;;;;;;;5001760;28;20790;-56
2021/12/22 02:28:28;;;;;;;11.03;6.83;;;;;;;;;;5000114;28;20246;-56
2021/12/22 02:30:54;;;;;;;10.20;6.70;;;;;;;;;;4998428;28;20228;-56
2021/12/22 02:36:08;;;;;;;12.30;7.00;;;;;;;;;;4988952;28;20221;-56
2021/12/22 02:38:38;;;;;;;11.50;7.27;;;;;;;;;;5000675;28;20224;-56
2021/12/22 02:41:07;;;;;;;8.57;6.37;;;;;;;;;;4977997;28;20286;-56
2021/12/22 02:43:34;;;;;;;9.73;6.93;;;;;;;;;;5005191;28;20701;-55
2021/12/22 02:46:00;;;;;;;9.30;6.60;;;;;;;;;;4995519;28;20657;-55
2021/12/22 02:48:32;;;;;;;10.27;6.67;;;;;;;;;;4994561;28;20244;-56
2021/12/22 02:51:00;;;;;;;9.27;6.20;;;;;;;;;;4983423;28;20305;-55
2021/12/22 02:53:32;;;;;;;8.43;6.37;;;;;;;;;;4994427;28;20615;-56
2021/12/22 02:56:04;;;;;;;10.37;6.37;;;;;;;;;;4990492;28;21005;-55
2021/12/22 02:58:42;;;;;;;10.03;6.40;;;;;;;;;;4989211;28;20238;-56
2021/12/22 03:06:28;;;;;;;11.13;6.70;;;;;;;;;;4995918;28;20235;-55
2021/12/22 03:08:54;;;;;;;9.87;6.40;;;;;;;;;;4999128;28;20227;-55
2021/12/22 03:11:20;;;;;;;9.50;6.87;;;;;;;;;;5004981;28;20918;-56
2021/12/22 03:13:46;;;;;;;13.03;7.23;;;;;;;;;;4996888;28;20294;-56
2021/12/22 03:16:12;;;;;;;11.07;7.00;;;;;;;;;;5009821;28;20247;-56
2021/12/22 03:18:38;;;;;;;11.83;6.80;;;;;;;;;;5000614;28;20245;-55
2021/12/22 03:21:18;;;;;;;10.77;6.40;;;;;;;;;;4984222;28;20237;-56
2021/12/22 03:23:44;;;;;;;10.93;6.40;;;;;;;;;;4992386;28;20310;-55
2021/12/22 03:26:13;;;;;;;14.13;6.93;;;;;;;;;;4987072;28;20262;-55
2021/12/22 03:28:39;;;;;;;9.10;6.27;;;;;;;;;;4987970;28;20237;-55
2021/12/22 03:31:05;;;;;;;10.23;6.90;;;;;;;;;;4988087;28;20576;-56
2021/12/22 03:33:31;;;;;;;8.67;6.70;;;;;;;;;;4990114;28;20696;-56
2021/12/22 03:35:57;;;;;;;12.97;6.63;;;;;;;;;;4996595;28;21208;-56
2021/12/22 03:38:23;;;;;;;10.33;6.80;;;;;;;;;;4999318;28;20314;-56
2021/12/22 03:40:49;;;;;;;11.83;5.93;;;;;;;;;;4989643;28;20242;-55
2021/12/22 03:43:15;;;;;;;11.70;6.90;;;;;;;;;;4991943;28;20721;-56
2021/12/22 03:45:41;;;;;;;10.30;6.80;;;;;;;;;;4994201;28;20626;-55
2021/12/22 03:48:07;;;;;;;10.73;6.73;;;;;;;;;;5001525;28;20225;-55
2021/12/22 03:50:33;;;;;;;11.03;6.97;;;;;;;;;;5002233;28;20290;-56
2021/12/22 03:52:59;;;;;;;9.20;6.87;;;;;;;;;;4990423;28;20483;-56
2021/12/22 03:55:25;;;;;;;9.93;6.60;;;;;;;;;;4990884;28;20229;-55
2021/12/22 03:57:51;;;;;;;11.37;7.10;;;;;;;;;;4986425;28;20738;-55
2021/12/22 04:00:17;;;;;;;10.93;6.67;;;;;;;;;;4993932;28;20243;-55
2021/12/22 04:02:43;;;;;;;10.37;6.83;;;;;;;;;;4986615;28;20232;-55
2021/12/22 04:05:09;;;;;;;11.57;6.67;;;;;;;;;;4985321;28;20237;-55
2021/12/22 04:07:35;;;;;;;9.13;6.90;;;;;;;;;;4999155;28;20232;-55
2021/12/22 04:10:10;;;;;;;10.93;6.83;;;;;;;;;;4991642;28;20233;-54
2021/12/22 04:12:36;;;;;;;10.67;6.67;;;;;;;;;;5001552;28;20626;-55
2021/12/22 04:15:02;;;;;;;9.50;6.80;;;;;;;;;;4992275;28;20895;-55
2021/12/22 04:17:27;;;;;;;12.13;7.40;;;;;;;;;;4998857;28;20844;-55
2021/12/22 04:19:53;;;;;;;9.60;6.57;;;;;;;;;;4997362;28;20294;-55
2021/12/22 04:22:19;;;;;;;8.20;5.93;;;;;;;;;;5002928;28;20266;-56
2021/12/22 04:24:45;;;;;;;9.80;6.30;;;;;;;;;;5009974;28;20252;-55
2021/12/22 04:27:12;;;;;;;13.13;6.77;;;;;;;;;;4988312;28;20232;-55
2021/12/22 04:29:38;;;;;;;11.90;7.10;;;;;;;;;;4992658;28;20319;-54
2021/12/22 04:32:04;;;;;;;10.87;7.20;;;;;;;;;;4997274;28;20242;-55
2021/12/22 04:34:30;;;;;;;10.30;6.43;;;;;;;;;;4997137;28;20362;-55
2021/12/22 04:36:56;;;;;;;12.43;6.77;;;;;;;;;;5002108;28;22057;-55
2021/12/22 04:39:22;;;;;;;10.90;7.10;;;;;;;;;;4999088;28;20222;-55
2021/12/22 04:41:48;;;;;;;13.43;6.90;;;;;;;;;;4988615;28;20229;-55
2021/12/22 04:44:14;;;;;;;12.07;7.10;;;;;;;;;;4974095;28;20953;-54
2021/12/22 04:46:40;;;;;;;10.93;7.53;;;;;;;;;;4987700;28;20260;-55
2021/12/22 04:49:06;;;;;;;12.37;7.13;;;;;;;;;;4987572;28;20320;-56
2021/12/22 04:51:34;;;;;;;9.00;6.63;;;;;;;;;;4997562;28;20227;-55
2021/12/22 04:54:14;;;;;;;10.23;7.20;;;;;;;;;;4999864;28;21419;-55
2021/12/22 04:56:40;;;;;;;11.73;6.73;;;;;;;;;;5004158;28;20864;-56
2021/12/22 04:59:06;;;;;;;13.80;7.27;;;;;;;;;;5004679;28;20258;-56
2021/12/22 05:01:32;;;;;;;11.83;7.23;;;;;;;;;;4998287;28;20363;-56
2021/12/22 05:03:58;;;;;;;13.67;7.00;;;;;;;;;;4992387;28;20549;-55
2021/12/22 05:06:24;;;;;;;11.27;6.63;;;;;;;;;;4986425;28;20292;-56
2021/12/22 05:08:51;;;;;;;10.97;7.27;;;;;;;;;;4988404;28;20320;-55
2021/12/22 05:11:17;;;;;;;11.17;6.80;;;;;;;;;;4981196;28;20318;-56
2021/12/22 05:13:43;;;;;;;9.10;6.30;;;;;;;;;;4992001;28;22407;-55
2021/12/22 05:16:16;;;;;;;9.87;7.03;;;;;;;;;;4988597;28;20380;-56
2021/12/22 05:21:14;;;;;;;11.20;7.33;;;;;;;;;;4993749;28;20239;-55
2021/12/22 05:23:40;;;;;;;10.17;7.00;;;;;;;;;;4984509;28;20831;-55
2021/12/22 05:26:06;;;;;;;12.00;6.93;;;;;;;;;;4979901;28;21809;-55
2021/12/22 05:28:32;;;;;;;10.93;6.97;;;;;;;;;;4990415;28;20334;-55
2021/12/22 05:30:57;;;;;;;10.87;7.00;;;;;;;;;;4991658;28;20249;-55
2021/12/22 05:33:23;;;;;;;10.03;7.03;;;;;;;;;;4987317;28;21025;-56
2021/12/22 05:35:49;;;;;;;10.20;6.97;;;;;;;;;;5012213;28;20664;-55
2021/12/22 05:38:17;;;;;;;11.30;6.87;;;;;;;;;;4997470;28;20236;-56
2021/12/22 05:40:43;;;;;;;9.70;6.87;;;;;;;;;;5006277;28;20239;-55
2021/12/22 05:43:09;;;;;;;10.70;7.30;;;;;;;;;;5013012;28;20262;-55
2021/12/22 05:45:35;;;;;;;13.00;7.00;;;;;;;;;;5014424;28;20239;-55
2021/12/22 05:48:01;;;;;;;12.00;7.13;;;;;;;;;;5006360;28;20232;-56
2021/12/22 05:50:27;;;;;;;10.07;6.50;;;;;;;;;;5007084;28;20232;-56
2021/12/22 05:52:53;;;;;;;10.30;7.03;;;;;;;;;;5004530;28;20237;-55
2021/12/22 05:55:19;;;;;;;11.00;7.30;;;;;;;;;;4995388;28;20358;-56
2021/12/22 05:57:45;;;;;;;11.03;6.23;;;;;;;;;;4993133;28;20827;-56
2021/12/22 06:00:12;;;;;;;12.20;6.93;;;;;;;;;;5000466;28;20236;-55
2021/12/22 06:02:38;;;;;;;10.40;6.77;;;;;;;;;;4991068;28;20302;-54
2021/12/22 06:05:04;;;;;;;10.17;6.73;;;;;;;;;;4996157;28;20596;-56
2021/12/22 06:07:30;;;;;;;10.17;6.93;;;;;;;;;;5004877;28;20805;-55
2021/12/22 06:09:56;;;;;;;11.47;6.60;;;;;;;;;;5005033;28;20225;-56
2021/12/22 06:12:22;;;;;;;12.10;6.60;;;;;;;;;;5000010;28;20765;-56
2021/12/22 06:14:48;;;;;;;12.67;6.63;;;;;;;;;;5001718;28;20232;-56
2021/12/22 06:17:14;;;;;;;10.07;6.53;;;;;;;;;;4995114;28;20235;-56
2021/12/22 06:19:40;;;;;;;9.90;6.30;;;;;;;;;;4990011;28;20363;-56
2021/12/22 06:22:06;;;;;;;13.10;7.23;;;;;;;;;;5008054;28;20789;-56
2021/12/22 06:24:32;;;;;;;11.93;6.97;;;;;;;;;;5010395;28;20240;-56
2021/12/22 06:26:58;;;;;;;8.47;6.77;;;;;;;;;;4996657;28;20319;-55
2021/12/22 06:29:25;;;;;;;10.23;7.03;;;;;;;;;;5008766;28;20240;-55
2021/12/22 06:31:51;;;;;;;10.33;6.93;;;;;;;;;;5007707;28;20259;-55
2021/12/22 06:34:17;;;;;;;10.07;6.80;;;;;;;;;;5011860;28;20238;-55
2021/12/22 06:36:43;;;;;;;11.60;6.60;;;;;;;;;;4995977;28;20810;-55
2021/12/22 06:39:09;;;;;;;9.07;6.30;;;;;;;;;;4991597;28;20348;-56
2021/12/22 06:41:35;;;;;;;11.00;7.43;;;;;;;;;;4991413;28;20228;-56
2021/12/22 06:44:01;;;;;;;8.97;6.77;;;;;;;;;;4998468;28;20239;-56
2021/12/22 06:46:27;;;;;;;7.83;6.20;;;;;;;;;;5011025;28;20297;-55
2021/12/22 06:48:53;;;;;;;11.37;6.97;;;;;;;;;;5008119;28;20227;-56
2021/12/22 06:51:19;;;;;;;9.00;6.67;;;;;;;;;;5007389;28;20256;-56
2021/12/22 06:53:45;;;;;;;11.33;6.43;;;;;;;;;;4996582;28;20263;-55
2021/12/22 06:56:11;;;;;;;11.80;7.03;;;;;;;;;;5002500;28;20273;-56
2021/12/22 06:58:37;;;;;;;9.60;6.73;;;;;;;;;;4992591;28;20421;-56
2021/12/22 07:01:03;;;;;;;11.10;6.50;;;;;;;;;;5013529;28;20452;-56
2021/12/22 07:03:29;;;;;;;11.30;7.13;;;;;;;;;;5003697;28;21557;-56
2021/12/22 07:05:55;;;;;;;10.07;7.00;;;;;;;;;;4986718;28;20240;-55
2021/12/22 07:08:21;;;;;;;9.33;6.67;;;;;;;;;;4979288;28;20701;-55
2021/12/22 07:10:47;;;;;;;12.37;6.43;;;;;;;;;;5007816;28;20327;-56
2021/12/22 07:13:14;;;;;;;10.17;7.03;;;;;;;;;;5002987;28;21002;-55
2021/12/22 07:15:40;;;;;;;9.73;6.77;;;;;;;;;;5013735;28;22009;-55
2021/12/22 07:18:10;;;;;;;11.20;6.90;;;;;;;;;;5017862;28;20319;-56
2021/12/22 07:20:36;;;;;;;9.57;6.80;;;;;;;;;;5012760;28;20273;-56
2021/12/22 07:23:02;;;;;;;10.47;6.63;;;;;;;;;;5004641;28;20294;-55
2021/12/22 07:25:28;;;;;;;9.43;6.90;;;;;;;;;;5012338;28;20260;-55
2021/12/22 07:27:54;;;;;;;9.53;6.60;;;;;;;;;;5007268;28;20240;-56
2021/12/22 07:30:20;;;;;;;12.10;7.60;;;;;;;;;;5002438;28;20779;-55
2021/12/22 07:32:46;;;;;;;10.53;6.50;;;;;;;;;;5010338;28;21268;-56
2021/12/22 07:35:18;;;;;;;8.87;6.37;;;;;;;;;;4998602;28;22112;-56
2021/12/22 07:37:48;;;;;;;10.53;7.37;;;;;;;;;;5006445;28;20236;-55
2021/12/22 07:40:15;;;;;;;12.67;7.47;;;;;;;;;;5007705;28;20721;-55
2021/12/22 07:42:41;;;;;;;11.40;7.73;;;;;;;;;;5001221;28;20240;-56
2021/12/22 07:45:08;;;;;;;11.70;7.57;;;;;;;;;;5003274;28;20394;-55
2021/12/22 07:47:34;;;;;;;12.23;7.20;;;;;;;;;;5010063;28;20962;-56
2021/12/22 07:50:00;;;;;;;11.67;7.00;;;;;;;;;;4994508;28;20940;-56
2021/12/22 07:52:27;;;;;;;12.50;7.20;;;;;;;;;;5007286;28;20602;-55
2021/12/22 07:54:53;;;;;;;10.93;7.03;;;;;;;;;;5012810;28;20265;-55
2021/12/22 07:57:19;;;;;;;10.90;7.40;;;;;;;;;;5008676;28;20283;-55
2021/12/22 07:59:45;;;;;;;10.80;7.40;;;;;;;;;;5002264;28;20349;-55
2021/12/22 08:02:12;;;;;;;12.13;7.60;;;;;;;;;;4996991;28;20228;-55
2021/12/22 08:04:38;;;;;;;11.33;7.33;;;;;;;;;;5007870;28;20246;-55
2021/12/22 08:07:04;;;;;;;11.73;7.40;;;;;;;;;;5003977;28;21085;-55
2021/12/22 08:09:30;;;;;;;13.13;7.27;;;;;;;;;;5012602;28;20271;-56
2021/12/22 08:11:56;;;;;;;12.80;7.47;;;;;;;;;;5008652;28;20236;-55
2021/12/22 08:14:23;;;;;;;9.80;7.27;;;;;;;;;;5007022;28;20482;-56
2021/12/22 08:16:50;;;;;;;10.53;7.23;;;;;;;;;;5000576;28;20231;-55
2021/12/22 08:19:16;;;;;;;11.63;7.57;;;;;;;;;;4998802;28;20294;-55
2021/12/22 08:21:44;;;;;;;12.77;7.50;;;;;;;;;;5012430;28;20697;-55
2021/12/22 08:24:10;;;;;;;13.30;8.00;;;;;;;;;;4999671;28;20259;-55
2021/12/22 08:26:54;;;;;;;11.77;7.97;;;;;;;;;;5000245;28;20317;-56
2021/12/22 08:29:20;;;;;;;11.13;7.83;;;;;;;;;;5002342;28;20271;-55
2021/12/22 08:31:46;;;;;;;11.27;7.63;;;;;;;;;;5011298;28;21988;-55
2021/12/22 08:34:16;;;;;;;8.43;7.27;;;;;;;;;;5008948;28;20671;-56
2021/12/22 08:39:27;;;;;;;10.80;7.40;;;;;;;;;;5009233;28;20648;-56
2021/12/22 08:41:53;;;;;;;10.73;7.27;;;;;;;;;;5014183;28;20511;-56
2021/12/22 08:44:19;;;;;;;14.77;8.10;;;;;;;;;;5019348;28;20240;-56
2021/12/22 08:46:48;;;;;;;13.53;8.03;;;;;;;;;;5013192;28;20322;-55
2021/12/22 08:49:14;;;;;;;11.63;7.97;;;;;;;;;;5008387;28;21904;-55
2021/12/22 08:51:40;;;;;;;11.93;7.93;;;;;;;;;;5007528;28;20765;-55
2021/12/22 08:54:06;;;;;;;10.17;7.23;;;;;;;;;;5018386;28;20293;-57
2021/12/22 08:56:32;;;;;;;14.57;8.40;;;;;;;;;;5011813;28;20605;-55
2021/12/22 08:58:58;;;;;;;12.90;8.33;;;;;;;;;;5014230;28;20243;-57
2021/12/22 09:01:24;;;;;;;10.67;7.63;;;;;;;;;;5004613;28;20302;-56
2021/12/22 09:03:50;;;;;;;10.97;7.63;;;;;;;;;;4979962;28;20248;-55
2021/12/22 09:06:16;;;;;;;12.10;8.43;;;;;;;;;;5002192;28;20240;-56
2021/12/22 09:08:42;;;;;;;12.67;8.10;;;;;;;;;;5003776;28;20753;-56
2021/12/22 09:11:08;;;;;;;11.07;7.30;;;;;;;;;;5001801;28;20259;-56
2021/12/22 09:13:37;;;;;;;17.23;8.57;;;;;;;;;;5012025;28;20351;-56
2021/12/22 09:16:04;;;;;;;11.70;8.30;;;;;;;;;;5007512;28;20243;-55
2021/12/22 09:18:29;;;;;;;11.70;8.23;;;;;;;;;;4993846;28;20244;-56
2021/12/22 09:20:56;;;;;;;14.33;7.77;;;;;;;;;;5001088;28;20701;-55
2021/12/22 09:23:21;;;;;;;13.03;8.63;;;;;;;;;;4995863;28;20232;-55
2021/12/22 09:25:47;;;;;;;12.00;8.87;;;;;;;;;;5003690;28;20231;-56
2021/12/22 09:28:14;;;;;;;13.37;8.70;;;;;;;;;;4989077;28;20653;-56
2021/12/22 09:30:41;;;;;;;11.03;9.03;;;;;;;;;;5002087;28;20239;-56
2021/12/22 09:33:07;;;;;;;11.47;8.70;;;;;;;;;;5007264;28;20229;-55
2021/12/22 09:35:33;;;;;;;12.53;8.97;;;;;;;;;;5000279;28;20809;-56
2021/12/22 09:37:59;;;;;;;11.87;9.07;;;;;;;;;;5008908;28;20227;-56
2021/12/22 09:40:25;;;;;;;11.00;8.43;;;;;;;;;;5012251;28;20227;-56
2021/12/22 09:42:51;;;;;;;11.33;8.67;;;;;;;;;;5008067;28;20308;-56
2021/12/22 09:45:19;;;;;;;14.70;9.83;;;;;;;;;;5011969;28;20314;-56
2021/12/22 09:48:03;;;;;;;14.73;9.23;;;;;;;;;;5012017;28;20232;-56
2021/12/22 09:50:46;;;;;;;12.17;8.90;;;;;;;;;;5009966;28;20257;-56
2021/12/22 09:53:16;;;;;;;12.17;8.60;;;;;;;;;;5011315;28;20233;-56
2021/12/22 09:55:42;;;;;;;13.77;9.10;;;;;;;;;;5012083;28;21048;-56
2021/12/22 09:58:09;;;;;;;11.67;8.83;;;;;;;;;;5016403;28;20240;-56
2021/12/22 10:00:36;;;;;;;12.33;9.10;;;;;;;;;;5004342;28;20643;-56
2021/12/22 10:03:03;;;;;;;11.43;8.63;;;;;;;;;;5017708;28;23062;-56
2021/12/22 10:05:29;;;;;;;12.40;9.30;;;;;;;;;;5017777;28;21517;-55
2021/12/22 10:08:08;;;;;;;11.80;8.70;;;;;;;;;;5013572;28;20513;-56
2021/12/22 10:10:35;;;;;;;13.50;8.97;;;;;;;;;;5013690;28;20235;-55
2021/12/22 10:13:08;;;;;;;11.23;8.77;;;;;;;;;;5009077;28;20572;-56
2021/12/22 10:15:35;;;;;;;12.10;9.07;;;;;;;;;;5012674;28;20307;-56
2021/12/22 10:18:09;;;;;;;12.37;9.17;;;;;;;;;;5004379;28;20635;-56
2021/12/22 10:20:35;;;;;;;10.37;8.77;;;;;;;;;;5014124;28;20252;-56
2021/12/22 10:23:01;;;;;;;9.67;8.23;;;;;;;;;;5007183;28;20347;-56
2021/12/22 10:25:29;;;;;;;16.10;9.20;;;;;;;;;;5006150;28;20233;-56
2021/12/22 10:28:00;;;;;;;10.93;8.23;;;;;;;;;;5015791;28;20235;-56
2021/12/22 10:30:27;;;;;;;12.67;8.40;;;;;;;;;;5009809;28;20251;-56
2021/12/22 10:33:05;;;;;;;11.70;8.27;;;;;;;;;;5015931;28;20327;-56
2021/12/22 10:35:35;;;;;;;11.07;8.60;;;;;;;;;;5014293;28;20231;-56
2021/12/22 10:38:01;;;;;;;11.13;8.53;;;;;;;;;;5008862;28;20238;-56
2021/12/22 10:40:28;;;;;;;12.03;8.50;;;;;;;;;;4996965;28;20224;-56
2021/12/22 10:42:54;;;;;;;10.53;8.90;;;;;;;;;;4993156;28;20327;-56
2021/12/22 10:45:20;;;;;;;12.00;8.77;;;;;;;;;;5003903;28;20247;-56
2021/12/22 10:50:32;;;;;;;12.00;8.87;;;;;;;;;;5007662;28;20794;-56
2021/12/22 10:52:58;;;;;;;10.77;8.17;;;;;;;;;;5017426;28;20288;-56
2021/12/22 10:55:24;;;;;;;10.97;8.37;;;;;;;;;;4993670;28;20317;-56
2021/12/22 10:57:50;;;;;;;13.10;8.33;;;;;;;;;;5015324;28;21012;-56
2021/12/22 11:00:17;;;;;;;9.10;7.83;;;;;;;;;;5006247;28;20248;-56
2021/12/22 11:02:50;;;;;;;10.33;8.03;;;;;;;;;;5017851;28;20235;-56
2021/12/22 11:05:20;;;;;;;11.07;8.70;;;;;;;;;;5008876;28;20293;-56
2021/12/22 11:07:46;;;;;;;10.47;7.97;;;;;;;;;;5011802;28;20353;-56
2021/12/22 11:10:29;;;;;;;9.93;8.40;;;;;;;;;;5010422;28;20236;-56
2021/12/22 11:13:05;;;;;;;10.47;8.23;;;;;;;;;;5003918;28;20257;-56
2021/12/22 11:15:31;;;;;;;10.83;8.37;;;;;;;;;;5024826;28;20236;-57
2021/12/22 11:17:57;;;;;;;11.70;8.10;;;;;;;;;;5023221;28;20705;-56
2021/12/22 11:20:23;;;;;;;13.13;9.20;;;;;;;;;;5020253;28;20284;-56
2021/12/22 11:22:58;;;;;;;13.13;8.77;;;;;;;;;;5013834;28;20569;-56
2021/12/22 11:25:24;;;;;;;12.77;8.33;;;;;;;;;;5012926;28;21686;-57
2021/12/22 11:27:50;;;;;;;10.30;7.90;;;;;;;;;;5018532;28;20239;-56
2021/12/22 11:30:16;;;;;;;11.37;8.87;;;;;;;;;;5014141;28;20239;-56
2021/12/22 11:32:42;;;;;;;13.10;9.13;;;;;;;;;;5018468;28;20235;-56
2021/12/22 11:35:09;;;;;;;10.77;7.97;;;;;;;;;;5017248;28;21325;-56
2021/12/22 11:37:35;;;;;;;12.90;9.07;;;;;;;;;;5018580;28;20326;-56
2021/12/22 11:40:03;;;;;;;9.43;8.33;;;;;;;;;;5009683;28;20217;-56
2021/12/22 11:42:37;;;;;;;12.27;8.07;;;;;;;;;;5009544;28;20230;-56
2021/12/22 11:45:08;;;;;;;11.33;8.23;;;;;;;;;;4994284;28;20602;-56
2021/12/22 11:47:41;;;;;;;8.70;7.73;;;;;;;;;;5020439;28;20927;-57
2021/12/22 11:50:07;;;;;;;10.90;8.00;;;;;;;;;;5011960;28;20232;-56
2021/12/22 11:52:36;;;;;;;10.30;8.20;;;;;;;;;;5002522;28;20776;-56
2021/12/22 11:55:21;;;;;;;9.60;7.87;;;;;;;;;;4999264;28;20227;-56
2021/12/22 11:57:51;;;;;;;10.03;7.90;;;;;;;;;;4997385;28;20231;-56
2021/12/22 12:00:24;;;;;;;9.40;8.23;;;;;;;;;;5011842;28;20438;-57
2021/12/22 12:02:51;;;;;;;12.33;8.07;;;;;;;;;;5007310;28;20243;-56
2021/12/22 12:05:17;;;;;;;9.30;7.70;;;;;;;;;;5003984;28;20846;-56
2021/12/22 12:07:48;;;;;;;12.60;8.90;;;;;;;;;;5014599;28;20359;-57
2021/12/22 12:10:33;;;;;;;13.40;8.20;;;;;;;;;;5015813;28;20732;-56
2021/12/22 12:13:17;;;;;;;11.63;8.93;;;;;;;;;;5012277;28;20231;-56
2021/12/22 12:22:10;;;;;;;9.83;8.17;;;;;;;;;;4992327;28;20240;-57
2021/12/22 12:24:43;;;;;;;10.13;8.03;;;;;;;;;;5010213;28;20250;-57
2021/12/22 12:27:46;;;;;;;10.20;8.00;;;;;;;;;;5005853;28;20740;-56
2021/12/22 12:30:42;;;;;;;10.27;8.20;;;;;;;;;;4979871;28;20247;-57
2021/12/22 12:33:09;;;;;;;8.30;7.07;;;;;;;;;;5000451;28;20235;-56
2021/12/22 12:35:36;;;;;;;8.83;7.93;;;;;;;;;;5009206;28;20233;-57
2021/12/22 12:38:09;;;;;;;9.27;7.57;;;;;;;;;;4993101;28;20232;-57
2021/12/22 12:40:54;;;;;;;8.20;7.20;;;;;;;;;;4987968;28;20237;-57
2021/12/22 12:43:20;;;;;;;8.90;7.13;;;;;;;;;;5000540;28;22460;-57
2021/12/22 12:45:48;;;;;;;9.83;7.97;;;;;;;;;;5021425;28;20313;-57
2021/12/22 12:48:27;;;;;;;8.93;7.70;;;;;;;;;;5004722;28;20632;-56
2021/12/22 12:51:15;;;;;;;11.43;7.30;;;;;;;;;;5003499;28;20263;-56
2021/12/22 12:53:41;;;;;;;8.43;7.50;;;;;;;;;;5015352;28;25366;-57
2021/12/22 12:56:08;;;;;;;10.87;7.90;;;;;;;;;;5009056;28;20232;-57
2021/12/22 12:58:34;;;;;;;10.07;7.90;;;;;;;;;;5010461;28;20768;-56
2021/12/22 13:01:00;;;;;;;9.97;7.57;;;;;;;;;;4997530;28;20236;-57
2021/12/22 13:03:26;;;;;;;8.73;6.77;;;;;;;;;;5005748;28;20227;-57
2021/12/22 13:05:52;;;;;;;9.03;7.17;;;;;;;;;;4998716;28;20233;-57
2021/12/22 13:08:18;;;;;;;10.57;8.10;;;;;;;;;;5004280;28;20309;-57
2021/12/22 13:10:50;;;;;;;10.70;7.93;;;;;;;;;;4993106;28;20239;-57
2021/12/22 13:13:29;;;;;;;8.93;7.60;;;;;;;;;;4993831;28;20283;-57
2021/12/22 13:15:58;;;;;;;13.10;7.30;;;;;;;;;;5003239;28;20231;-57
2021/12/22 13:18:28;;;;;;;10.80;7.97;;;;;;;;;;5001196;28;22078;-57
2021/12/22 13:20:56;;;;;;;9.30;7.63;;;;;;;;;;5004693;28;20231;-57
2021/12/22 13:23:23;;;;;;;8.03;7.23;;;;;;;;;;5019406;28;20282;-57
2021/12/22 13:25:50;;;;;;;7.87;6.73;;;;;;;;;;5018002;28;20242;-57
2021/12/22 13:28:21;;;;;;;8.90;7.40;;;;;;;;;;5018249;28;20327;-57
2021/12/22 13:30:52;;;;;;;9.57;7.77;;;;;;;;;;5005653;28;20330;-57
2021/12/22 13:33:27;;;;;;;9.50;7.33;;;;;;;;;;5007040;28;20315;-56
2021/12/22 13:36:12;;;;;;;9.47;7.97;;;;;;;;;;5012706;28;20231;-57
2021/12/22 13:38:38;;;;;;;10.40;7.97;;;;;;;;;;5013796;28;20234;-57
2021/12/22 13:41:14;;;;;;;9.33;7.90;;;;;;;;;;5020951;28;20243;-57
2021/12/22 13:43:55;;;;;;;11.50;8.40;;;;;;;;;;5014847;28;20362;-57
2021/12/22 13:46:22;;;;;;;9.97;8.00;;;;;;;;;;5017139;28;20532;-57
2021/12/22 13:48:54;;;;;;;10.87;9.30;;;;;;;;;;5010977;28;20260;-56
2021/12/22 13:51:23;;;;;;;10.83;8.07;;;;;;;;;;5018129;28;20381;-57
2021/12/22 13:53:49;;;;;;;10.97;9.37;;;;;;;;;;5005532;28;20229;-57
2021/12/22 13:56:17;;;;;;;10.20;8.87;;;;;;;;;;5007732;28;20440;-56
2021/12/22 13:58:47;;;;;;;10.63;8.73;;;;;;;;;;5016309;28;20290;-57
2021/12/22 14:01:17;;;;;;;12.67;9.07;;;;;;;;;;5034130;28;20290;-57
2021/12/22 14:03:44;;;;;;;12.03;9.07;;;;;;;;;;5019640;28;20236;-57
2021/12/22 14:06:10;;;;;;;10.50;8.93;;;;;;;;;;5013733;28;20231;-57
2021/12/22 14:08:36;;;;;;;10.67;9.20;;;;;;;;;;5005663;28;20224;-57
2021/12/22 14:11:03;;;;;;;11.07;9.07;;;;;;;;;;5012827;28;20238;-57
2021/12/22 14:13:29;;;;;;;12.57;9.20;;;;;;;;;;5009452;28;20286;-57
2021/12/22 14:15:55;;;;;;;11.93;9.53;;;;;;;;;;5015148;28;20246;-57
2021/12/22 14:18:21;;;;;;;11.40;9.67;;;;;;;;;;5008030;28;20253;-56
2021/12/22 14:20:47;;;;;;;11.27;9.23;;;;;;;;;;5015367;28;20266;-57
2021/12/22 14:23:13;;;;;;;12.50;10.10;;;;;;;;;;5014288;28;20378;-57
2021/12/22 14:25:40;;;;;;;12.83;10.20;;;;;;;;;;5005503;28;20806;-57
2021/12/22 14:28:15;;;;;;;12.00;9.87;;;;;;;;;;4991299;28;20370;-57
2021/12/22 14:30:41;;;;;;;10.97;9.47;;;;;;;;;;5004230;28;20236;-56
2021/12/22 14:33:07;;;;;;;11.03;9.30;;;;;;;;;;5008300;28;20239;-57
2021/12/22 14:36:03;;;;;;;15.40;9.83;;;;;;;;;;5004368;28;20534;-57
2021/12/22 14:38:34;;;;;;;12.83;9.80;;;;;;;;;;5008760;28;20331;-56
2021/12/22 14:41:00;;;;;;;12.10;10.23;;;;;;;;;;5007170;28;20228;-56
2021/12/22 14:43:33;;;;;;;13.07;10.10;;;;;;;;;;5003926;28;20457;-57
2021/12/22 14:45:59;;;;;;;12.50;9.73;;;;;;;;;;4994813;28;20237;-57
2021/12/22 14:48:30;;;;;;;15.50;10.83;;;;;;;;;;5015020;28;20336;-56
2021/12/22 14:50:56;;;;;;;12.60;10.57;;;;;;;;;;5002968;28;20240;-56
2021/12/22 14:53:30;;;;;;;14.13;10.67;;;;;;;;;;4995597;28;20232;-57
2021/12/22 14:55:57;;;;;;;12.50;10.33;;;;;;;;;;5008227;28;20235;-56
2021/12/22 14:58:23;;;;;;;16.63;9.77;;;;;;;;;;4988234;28;20244;-57
2021/12/22 15:00:49;;;;;;;14.33;10.10;;;;;;;;;;5007245;28;20275;-57